sensor_id;sensor_type;location;lat;lon;timestamp;P1;durP1;ratioP1;P2;durP2;ratioP2
75655;SDS011;64252;51.094;13.714;2023-02-03T00:02:19;8.95;;;3.35;;
75655;SDS011;64252;51.094;13.714;2023-02-03T00:04:44;7.30;;;2.78;;
75655;SDS011;64252;51.094;13.714;2023-02-03T00:07:10;5.70;;;2.50;;
75655;SDS011;64252;51.094;13.714;2023-02-03T00:09:38;6.78;;;2.65;;
75655;SDS011;64252;51.094;13.714;2023-02-03T00:12:04;8.65;;;2.97;;
75655;SDS011;64252;51.094;13.714;2023-02-03T00:14:29;8.38;;;3.05;;
75655;SDS011;64252;51.094;13.714;2023-02-03T00:16:55;7.90;;;2.75;;
75655;SDS011;64252;51.094;13.714;2023-02-03T00:19:20;8.55;;;2.92;;
75655;SDS011;64252;51.094;13.714;2023-02-03T00:21:46;8.10;;;3.03;;
75655;SDS011;64252;51.094;13.714;2023-02-03T00:24:12;8.70;;;2.90;;
75655;SDS011;64252;51.094;13.714;2023-02-03T00:26:41;8.30;;;2.75;;
75655;SDS011;64252;51.094;13.714;2023-02-03T00:29:07;7.40;;;2.28;;
75655;SDS011;64252;51.094;13.714;2023-02-03T00:31:33;7.80;;;3.17;;
75655;SDS011;64252;51.094;13.714;2023-02-03T00:33:59;9.05;;;2.95;;
75655;SDS011;64252;51.094;13.714;2023-02-03T00:36:25;7.70;;;3.00;;
75655;SDS011;64252;51.094;13.714;2023-02-03T00:38:51;9.57;;;3.28;;
75655;SDS011;64252;51.094;13.714;2023-02-03T00:41:17;10.45;;;3.50;;
75655;SDS011;64252;51.094;13.714;2023-02-03T00:43:43;11.02;;;3.08;;
75655;SDS011;64252;51.094;13.714;2023-02-03T00:46:09;9.10;;;2.97;;
75655;SDS011;64252;51.094;13.714;2023-02-03T00:48:34;11.82;;;4.30;;
75655;SDS011;64252;51.094;13.714;2023-02-03T00:51:00;7.97;;;3.15;;
75655;SDS011;64252;51.094;13.714;2023-02-03T00:53:25;8.95;;;3.60;;
75655;SDS011;64252;51.094;13.714;2023-02-03T00:55:50;9.65;;;3.10;;
75655;SDS011;64252;51.094;13.714;2023-02-03T00:58:16;6.60;;;2.80;;
75655;SDS011;64252;51.094;13.714;2023-02-03T01:00:41;10.50;;;3.47;;
75655;SDS011;64252;51.094;13.714;2023-02-03T01:03:07;10.95;;;3.97;;
75655;SDS011;64252;51.094;13.714;2023-02-03T01:05:32;8.27;;;3.00;;
75655;SDS011;64252;51.094;13.714;2023-02-03T01:07:59;10.00;;;3.65;;
75655;SDS011;64252;51.094;13.714;2023-02-03T01:10:25;6.55;;;1.92;;
75655;SDS011;64252;51.094;13.714;2023-02-03T01:12:51;6.93;;;2.28;;
75655;SDS011;64252;51.094;13.714;2023-02-03T01:15:16;10.85;;;2.45;;
75655;SDS011;64252;51.094;13.714;2023-02-03T01:17:42;7.10;;;2.42;;
75655;SDS011;64252;51.094;13.714;2023-02-03T01:20:09;11.55;;;2.88;;
75655;SDS011;64252;51.094;13.714;2023-02-03T01:22:40;8.32;;;2.50;;
75655;SDS011;64252;51.094;13.714;2023-02-03T01:25:06;8.43;;;2.40;;
75655;SDS011;64252;51.094;13.714;2023-02-03T01:27:32;9.00;;;2.40;;
75655;SDS011;64252;51.094;13.714;2023-02-03T01:29:59;5.53;;;2.45;;
75655;SDS011;64252;51.094;13.714;2023-02-03T01:32:25;5.78;;;2.55;;
75655;SDS011;64252;51.094;13.714;2023-02-03T01:34:51;9.32;;;2.25;;
75655;SDS011;64252;51.094;13.714;2023-02-03T01:37:16;5.13;;;1.88;;
75655;SDS011;64252;51.094;13.714;2023-02-03T01:39:42;7.43;;;1.98;;
75655;SDS011;64252;51.094;13.714;2023-02-03T01:42:12;9.15;;;2.08;;
75655;SDS011;64252;51.094;13.714;2023-02-03T01:44:46;4.32;;;1.88;;
75655;SDS011;64252;51.094;13.714;2023-02-03T01:47:23;5.80;;;2.17;;
75655;SDS011;64252;51.094;13.714;2023-02-03T01:49:54;8.45;;;2.03;;
75655;SDS011;64252;51.094;13.714;2023-02-03T01:52:20;5.05;;;2.10;;
75655;SDS011;64252;51.094;13.714;2023-02-03T01:54:47;5.22;;;1.70;;
75655;SDS011;64252;51.094;13.714;2023-02-03T01:57:16;7.03;;;2.28;;
75655;SDS011;64252;51.094;13.714;2023-02-03T01:59:46;7.28;;;1.52;;
75655;SDS011;64252;51.094;13.714;2023-02-03T02:02:14;5.53;;;1.75;;
75655;SDS011;64252;51.094;13.714;2023-02-03T02:04:51;8.85;;;1.58;;
75655;SDS011;64252;51.094;13.714;2023-02-03T02:07:22;5.32;;;1.95;;
75655;SDS011;64252;51.094;13.714;2023-02-03T02:09:49;8.70;;;1.98;;
75655;SDS011;64252;51.094;13.714;2023-02-03T02:12:14;6.55;;;1.80;;
75655;SDS011;64252;51.094;13.714;2023-02-03T02:14:40;7.40;;;1.67;;
75655;SDS011;64252;51.094;13.714;2023-02-03T02:17:30;5.75;;;1.83;;
75655;SDS011;64252;51.094;13.714;2023-02-03T02:33:59;6.03;;;1.50;;
75655;SDS011;64252;51.094;13.714;2023-02-03T02:40:13;6.93;;;1.80;;
75655;SDS011;64252;51.094;13.714;2023-02-03T02:43:07;5.35;;;1.40;;
75655;SDS011;64252;51.094;13.714;2023-02-03T02:48:16;4.70;;;1.10;;
75655;SDS011;64252;51.094;13.714;2023-02-03T02:50:48;5.82;;;1.52;;
75655;SDS011;64252;51.094;13.714;2023-02-03T02:53:19;5.78;;;1.63;;
75655;SDS011;64252;51.094;13.714;2023-02-03T02:55:49;4.47;;;1.35;;
75655;SDS011;64252;51.094;13.714;2023-02-03T02:58:18;4.53;;;1.55;;
75655;SDS011;64252;51.094;13.714;2023-02-03T03:00:44;5.07;;;1.50;;
75655;SDS011;64252;51.094;13.714;2023-02-03T03:03:18;5.18;;;1.60;;
75655;SDS011;64252;51.094;13.714;2023-02-03T03:05:55;4.13;;;1.60;;
75655;SDS011;64252;51.094;13.714;2023-02-03T03:08:36;5.05;;;1.55;;
75655;SDS011;64252;51.094;13.714;2023-02-03T03:11:03;6.72;;;1.70;;
75655;SDS011;64252;51.094;13.714;2023-02-03T03:13:33;5.07;;;1.67;;
75655;SDS011;64252;51.094;13.714;2023-02-03T03:16:06;6.85;;;1.80;;
75655;SDS011;64252;51.094;13.714;2023-02-03T03:19:09;4.97;;;1.60;;
75655;SDS011;64252;51.094;13.714;2023-02-03T03:21:35;4.50;;;1.48;;
75655;SDS011;64252;51.094;13.714;2023-02-03T03:24:07;5.38;;;1.50;;
75655;SDS011;64252;51.094;13.714;2023-02-03T03:29:16;6.72;;;1.60;;
75655;SDS011;64252;51.094;13.714;2023-02-03T03:31:43;5.72;;;1.88;;
75655;SDS011;64252;51.094;13.714;2023-02-03T03:34:09;4.97;;;1.65;;
75655;SDS011;64252;51.094;13.714;2023-02-03T03:37:19;7.38;;;1.73;;
75655;SDS011;64252;51.094;13.714;2023-02-03T03:39:47;4.05;;;1.90;;
75655;SDS011;64252;51.094;13.714;2023-02-03T03:42:40;6.38;;;1.65;;
75655;SDS011;64252;51.094;13.714;2023-02-03T03:45:16;6.20;;;2.05;;
75655;SDS011;64252;51.094;13.714;2023-02-03T03:48:06;4.65;;;2.03;;
75655;SDS011;64252;51.094;13.714;2023-02-03T03:50:39;5.13;;;1.70;;
75655;SDS011;64252;51.094;13.714;2023-02-03T03:53:10;7.60;;;2.60;;
75655;SDS011;64252;51.094;13.714;2023-02-03T03:55:39;6.13;;;2.42;;
75655;SDS011;64252;51.094;13.714;2023-02-03T03:58:08;7.90;;;2.67;;
75655;SDS011;64252;51.094;13.714;2023-02-03T04:00:37;5.25;;;2.30;;
75655;SDS011;64252;51.094;13.714;2023-02-03T04:03:05;6.50;;;2.38;;
75655;SDS011;64252;51.094;13.714;2023-02-03T04:05:37;6.35;;;2.55;;
75655;SDS011;64252;51.094;13.714;2023-02-03T04:08:04;9.60;;;3.05;;
75655;SDS011;64252;51.094;13.714;2023-02-03T04:10:31;9.07;;;2.90;;
75655;SDS011;64252;51.094;13.714;2023-02-03T04:12:59;7.05;;;2.55;;
75655;SDS011;64252;51.094;13.714;2023-02-03T04:15:25;5.80;;;2.38;;
75655;SDS011;64252;51.094;13.714;2023-02-03T04:17:52;6.70;;;3.00;;
75655;SDS011;64252;51.094;13.714;2023-02-03T04:20:19;5.40;;;2.45;;
75655;SDS011;64252;51.094;13.714;2023-02-03T04:22:45;8.52;;;2.80;;
75655;SDS011;64252;51.094;13.714;2023-02-03T04:25:12;5.97;;;2.60;;
75655;SDS011;64252;51.094;13.714;2023-02-03T04:27:37;5.78;;;2.65;;
75655;SDS011;64252;51.094;13.714;2023-02-03T04:30:03;10.10;;;3.42;;
75655;SDS011;64252;51.094;13.714;2023-02-03T04:32:29;9.73;;;3.90;;
75655;SDS011;64252;51.094;13.714;2023-02-03T04:34:55;6.22;;;2.85;;
75655;SDS011;64252;51.094;13.714;2023-02-03T04:37:22;7.43;;;3.65;;
75655;SDS011;64252;51.094;13.714;2023-02-03T04:39:48;10.05;;;3.50;;
75655;SDS011;64252;51.094;13.714;2023-02-03T04:42:16;7.28;;;3.63;;
75655;SDS011;64252;51.094;13.714;2023-02-03T04:44:42;6.95;;;3.28;;
75655;SDS011;64252;51.094;13.714;2023-02-03T04:47:08;5.80;;;3.28;;
75655;SDS011;64252;51.094;13.714;2023-02-03T04:49:34;5.07;;;2.80;;
75655;SDS011;64252;51.094;13.714;2023-02-03T04:51:59;7.10;;;4.05;;
75655;SDS011;64252;51.094;13.714;2023-02-03T04:54:25;6.97;;;3.15;;
75655;SDS011;64252;51.094;13.714;2023-02-03T04:56:51;6.63;;;3.47;;
75655;SDS011;64252;51.094;13.714;2023-02-03T04:59:17;6.55;;;3.13;;
75655;SDS011;64252;51.094;13.714;2023-02-03T05:01:42;7.95;;;3.72;;
75655;SDS011;64252;51.094;13.714;2023-02-03T05:04:08;6.57;;;3.97;;
75655;SDS011;64252;51.094;13.714;2023-02-03T05:06:34;7.18;;;4.38;;
75655;SDS011;64252;51.094;13.714;2023-02-03T05:08:59;6.80;;;4.32;;
75655;SDS011;64252;51.094;13.714;2023-02-03T05:11:25;5.63;;;3.22;;
75655;SDS011;64252;51.094;13.714;2023-02-03T05:13:51;6.13;;;3.45;;
75655;SDS011;64252;51.094;13.714;2023-02-03T05:16:17;5.97;;;3.08;;
75655;SDS011;64252;51.094;13.714;2023-02-03T05:18:43;5.63;;;3.05;;
75655;SDS011;64252;51.094;13.714;2023-02-03T05:21:08;7.22;;;3.53;;
75655;SDS011;64252;51.094;13.714;2023-02-03T05:23:35;6.63;;;3.80;;
75655;SDS011;64252;51.094;13.714;2023-02-03T05:26:01;6.68;;;3.50;;
75655;SDS011;64252;51.094;13.714;2023-02-03T05:28:26;9.60;;;4.20;;
75655;SDS011;64252;51.094;13.714;2023-02-03T05:30:51;7.75;;;3.58;;
75655;SDS011;64252;51.094;13.714;2023-02-03T05:33:17;10.40;;;4.65;;
75655;SDS011;64252;51.094;13.714;2023-02-03T05:35:43;6.82;;;4.05;;
75655;SDS011;64252;51.094;13.714;2023-02-03T05:38:08;6.53;;;3.40;;
75655;SDS011;64252;51.094;13.714;2023-02-03T05:40:34;5.70;;;3.42;;
75655;SDS011;64252;51.094;13.714;2023-02-03T05:43:18;7.68;;;4.07;;
75655;SDS011;64252;51.094;13.714;2023-02-03T05:45:43;5.70;;;3.25;;
75655;SDS011;64252;51.094;13.714;2023-02-03T05:48:09;6.68;;;3.38;;
75655;SDS011;64252;51.094;13.714;2023-02-03T05:50:35;9.70;;;3.90;;
75655;SDS011;64252;51.094;13.714;2023-02-03T05:53:09;11.95;;;5.10;;
75655;SDS011;64252;51.094;13.714;2023-02-03T05:55:35;7.15;;;4.05;;
75655;SDS011;64252;51.094;13.714;2023-02-03T05:58:00;6.50;;;3.70;;
75655;SDS011;64252;51.094;13.714;2023-02-03T06:00:26;7.10;;;3.72;;
75655;SDS011;64252;51.094;13.714;2023-02-03T06:02:53;8.23;;;4.50;;
75655;SDS011;64252;51.094;13.714;2023-02-03T06:05:20;7.88;;;4.57;;
75655;SDS011;64252;51.094;13.714;2023-02-03T06:07:46;9.13;;;4.50;;
75655;SDS011;64252;51.094;13.714;2023-02-03T06:10:12;7.60;;;4.22;;
75655;SDS011;64252;51.094;13.714;2023-02-03T06:12:38;7.90;;;4.28;;
75655;SDS011;64252;51.094;13.714;2023-02-03T06:15:04;7.88;;;4.47;;
75655;SDS011;64252;51.094;13.714;2023-02-03T06:17:30;7.20;;;4.22;;
75655;SDS011;64252;51.094;13.714;2023-02-03T06:19:56;7.93;;;4.40;;
75655;SDS011;64252;51.094;13.714;2023-02-03T06:22:24;7.30;;;4.03;;
75655;SDS011;64252;51.094;13.714;2023-02-03T06:24:49;9.50;;;4.22;;
75655;SDS011;64252;51.094;13.714;2023-02-03T06:27:15;12.20;;;4.80;;
75655;SDS011;64252;51.094;13.714;2023-02-03T06:29:41;10.07;;;4.57;;
75655;SDS011;64252;51.094;13.714;2023-02-03T06:32:07;7.13;;;4.35;;
75655;SDS011;64252;51.094;13.714;2023-02-03T06:34:33;6.65;;;4.00;;
75655;SDS011;64252;51.094;13.714;2023-02-03T06:37:00;8.60;;;3.80;;
75655;SDS011;64252;51.094;13.714;2023-02-03T06:39:26;5.43;;;3.55;;
75655;SDS011;64252;51.094;13.714;2023-02-03T06:41:51;10.52;;;4.88;;
75655;SDS011;64252;51.094;13.714;2023-02-03T06:44:17;8.98;;;4.68;;
75655;SDS011;64252;51.094;13.714;2023-02-03T06:46:43;11.02;;;4.93;;
75655;SDS011;64252;51.094;13.714;2023-02-03T06:49:09;8.80;;;4.93;;
75655;SDS011;64252;51.094;13.714;2023-02-03T06:51:35;7.18;;;4.00;;
75655;SDS011;64252;51.094;13.714;2023-02-03T06:54:02;8.52;;;4.47;;
75655;SDS011;64252;51.094;13.714;2023-02-03T06:56:29;12.32;;;5.28;;
75655;SDS011;64252;51.094;13.714;2023-02-03T06:58:55;7.18;;;4.43;;
75655;SDS011;64252;51.094;13.714;2023-02-03T07:01:22;9.05;;;4.63;;
75655;SDS011;64252;51.094;13.714;2023-02-03T07:03:50;17.08;;;9.05;;
75655;SDS011;64252;51.094;13.714;2023-02-03T07:06:15;12.13;;;6.55;;
75655;SDS011;64252;51.094;13.714;2023-02-03T07:08:41;9.15;;;4.90;;
75655;SDS011;64252;51.094;13.714;2023-02-03T07:11:07;6.82;;;3.70;;
75655;SDS011;64252;51.094;13.714;2023-02-03T07:13:32;7.35;;;4.05;;
75655;SDS011;64252;51.094;13.714;2023-02-03T07:15:58;6.60;;;3.83;;
75655;SDS011;64252;51.094;13.714;2023-02-03T07:18:23;6.10;;;3.30;;
75655;SDS011;64252;51.094;13.714;2023-02-03T07:20:50;6.05;;;3.33;;
75655;SDS011;64252;51.094;13.714;2023-02-03T07:25:51;5.60;;;3.40;;
75655;SDS011;64252;51.094;13.714;2023-02-03T07:28:16;8.68;;;3.40;;
75655;SDS011;64252;51.094;13.714;2023-02-03T07:30:42;8.00;;;3.33;;
75655;SDS011;64252;51.094;13.714;2023-02-03T07:33:07;4.93;;;3.15;;
75655;SDS011;64252;51.094;13.714;2023-02-03T07:35:33;5.05;;;2.88;;
75655;SDS011;64252;51.094;13.714;2023-02-03T07:37:59;5.00;;;2.88;;
75655;SDS011;64252;51.094;13.714;2023-02-03T07:40:24;5.70;;;3.10;;
75655;SDS011;64252;51.094;13.714;2023-02-03T07:42:51;6.75;;;2.50;;
75655;SDS011;64252;51.094;13.714;2023-02-03T07:45:17;4.72;;;2.67;;
75655;SDS011;64252;51.094;13.714;2023-02-03T07:47:43;5.32;;;2.80;;
75655;SDS011;64252;51.094;13.714;2023-02-03T07:50:09;4.85;;;2.70;;
75655;SDS011;64252;51.094;13.714;2023-02-03T07:52:36;5.57;;;2.92;;
75655;SDS011;64252;51.094;13.714;2023-02-03T07:55:03;6.60;;;3.08;;
75655;SDS011;64252;51.094;13.714;2023-02-03T07:57:29;5.65;;;3.38;;
75655;SDS011;64252;51.094;13.714;2023-02-03T07:59:54;7.72;;;4.32;;
75655;SDS011;64252;51.094;13.714;2023-02-03T08:02:20;7.68;;;3.53;;
75655;SDS011;64252;51.094;13.714;2023-02-03T08:04:45;6.95;;;3.00;;
75655;SDS011;64252;51.094;13.714;2023-02-03T08:07:11;4.22;;;2.38;;
75655;SDS011;64252;51.094;13.714;2023-02-03T08:09:36;5.75;;;2.67;;
75655;SDS011;64252;51.094;13.714;2023-02-03T08:12:02;5.35;;;2.75;;
75655;SDS011;64252;51.094;13.714;2023-02-03T08:14:29;6.05;;;2.45;;
75655;SDS011;64252;51.094;13.714;2023-02-03T08:16:55;5.68;;;2.40;;
75655;SDS011;64252;51.094;13.714;2023-02-03T08:19:21;5.45;;;2.10;;
75655;SDS011;64252;51.094;13.714;2023-02-03T08:21:47;4.88;;;2.60;;
75655;SDS011;64252;51.094;13.714;2023-02-03T08:24:12;4.22;;;1.95;;
75655;SDS011;64252;51.094;13.714;2023-02-03T08:26:40;6.38;;;2.55;;
75655;SDS011;64252;51.094;13.714;2023-02-03T08:29:05;6.00;;;2.42;;
75655;SDS011;64252;51.094;13.714;2023-02-03T08:31:32;5.50;;;2.30;;
75655;SDS011;64252;51.094;13.714;2023-02-03T08:33:57;6.45;;;2.13;;
75655;SDS011;64252;51.094;13.714;2023-02-03T08:36:23;4.10;;;2.05;;
75655;SDS011;64252;51.094;13.714;2023-02-03T08:38:50;5.53;;;2.45;;
75655;SDS011;64252;51.094;13.714;2023-02-03T08:41:16;7.20;;;2.10;;
75655;SDS011;64252;51.094;13.714;2023-02-03T08:43:42;3.70;;;2.22;;
75655;SDS011;64252;51.094;13.714;2023-02-03T08:46:09;5.30;;;1.80;;
75655;SDS011;64252;51.094;13.714;2023-02-03T08:48:36;3.33;;;1.63;;
75655;SDS011;64252;51.094;13.714;2023-02-03T08:51:08;4.78;;;2.25;;
75655;SDS011;64252;51.094;13.714;2023-02-03T08:53:38;6.82;;;2.63;;
75655;SDS011;64252;51.094;13.714;2023-02-03T08:56:07;6.45;;;2.60;;
75655;SDS011;64252;51.094;13.714;2023-02-03T08:58:34;7.28;;;2.22;;
75655;SDS011;64252;51.094;13.714;2023-02-03T09:03:33;3.63;;;1.98;;
75655;SDS011;64252;51.094;13.714;2023-02-03T09:05:58;5.65;;;2.13;;
75655;SDS011;64252;51.094;13.714;2023-02-03T09:08:24;4.40;;;2.38;;
75655;SDS011;64252;51.094;13.714;2023-02-03T09:10:50;5.88;;;2.13;;
75655;SDS011;64252;51.094;13.714;2023-02-03T09:13:16;6.00;;;2.33;;
75655;SDS011;64252;51.094;13.714;2023-02-03T09:15:41;4.43;;;2.60;;
75655;SDS011;64252;51.094;13.714;2023-02-03T09:18:07;6.32;;;2.25;;
75655;SDS011;64252;51.094;13.714;2023-02-03T09:20:33;4.15;;;2.13;;
75655;SDS011;64252;51.094;13.714;2023-02-03T09:23:02;4.47;;;1.83;;
75655;SDS011;64252;51.094;13.714;2023-02-03T09:25:28;5.65;;;2.97;;
75655;SDS011;64252;51.094;13.714;2023-02-03T09:27:53;5.75;;;2.60;;
75655;SDS011;64252;51.094;13.714;2023-02-03T09:30:20;6.88;;;2.47;;
75655;SDS011;64252;51.094;13.714;2023-02-03T09:32:46;6.22;;;2.30;;
75655;SDS011;64252;51.094;13.714;2023-02-03T09:35:18;6.65;;;2.72;;
75655;SDS011;64252;51.094;13.714;2023-02-03T09:37:46;5.60;;;2.53;;
75655;SDS011;64252;51.094;13.714;2023-02-03T09:40:23;5.57;;;2.80;;
75655;SDS011;64252;51.094;13.714;2023-02-03T09:43:03;6.75;;;3.15;;
75655;SDS011;64252;51.094;13.714;2023-02-03T09:45:52;6.93;;;3.45;;
75655;SDS011;64252;51.094;13.714;2023-02-03T09:48:20;7.13;;;2.88;;
75655;SDS011;64252;51.094;13.714;2023-02-03T09:50:51;5.93;;;2.80;;
75655;SDS011;64252;51.094;13.714;2023-02-03T09:55:53;6.43;;;3.28;;
75655;SDS011;64252;51.094;13.714;2023-02-03T09:58:19;6.38;;;2.80;;
75655;SDS011;64252;51.094;13.714;2023-02-03T10:00:53;7.15;;;2.90;;
75655;SDS011;64252;51.094;13.714;2023-02-03T10:03:35;6.60;;;3.22;;
75655;SDS011;64252;51.094;13.714;2023-02-03T10:06:24;3.95;;;2.22;;
75655;SDS011;64252;51.094;13.714;2023-02-03T10:20:02;6.20;;;2.53;;
75655;SDS011;64252;51.094;13.714;2023-02-03T10:22:43;6.07;;;2.40;;
75655;SDS011;64252;51.094;13.714;2023-02-03T10:27:38;4.20;;;2.00;;
75655;SDS011;64252;51.094;13.714;2023-02-03T10:30:27;4.10;;;2.25;;
75655;SDS011;64252;51.094;13.714;2023-02-03T10:33:13;6.03;;;2.50;;
75655;SDS011;64252;51.094;13.714;2023-02-03T10:38:18;8.05;;;2.38;;
75655;SDS011;64252;51.094;13.714;2023-02-03T10:40:53;6.78;;;2.35;;
75655;SDS011;64252;51.094;13.714;2023-02-03T10:43:18;6.50;;;2.53;;
75655;SDS011;64252;51.094;13.714;2023-02-03T10:46:02;6.38;;;2.03;;
75655;SDS011;64252;51.094;13.714;2023-02-03T10:48:28;5.10;;;2.17;;
75655;SDS011;64252;51.094;13.714;2023-02-03T10:50:54;7.88;;;2.28;;
75655;SDS011;64252;51.094;13.714;2023-02-03T10:53:25;6.47;;;1.90;;
75655;SDS011;64252;51.094;13.714;2023-02-03T10:58:32;6.80;;;2.00;;
75655;SDS011;64252;51.094;13.714;2023-02-03T11:01:11;4.97;;;2.42;;
75655;SDS011;64252;51.094;13.714;2023-02-03T11:03:58;4.03;;;2.17;;
75655;SDS011;64252;51.094;13.714;2023-02-03T11:06:25;3.72;;;1.90;;
75655;SDS011;64252;51.094;13.714;2023-02-03T11:08:52;3.95;;;1.70;;
75655;SDS011;64252;51.094;13.714;2023-02-03T11:16:27;6.80;;;2.08;;
75655;SDS011;64252;51.094;13.714;2023-02-03T11:24:02;5.88;;;2.17;;
75655;SDS011;64252;51.094;13.714;2023-02-03T11:26:43;8.40;;;2.00;;
75655;SDS011;64252;51.094;13.714;2023-02-03T11:29:26;6.32;;;1.75;;
75655;SDS011;64252;51.094;13.714;2023-02-03T11:31:56;6.25;;;2.10;;
75655;SDS011;64252;51.094;13.714;2023-02-03T11:34:24;2.95;;;1.65;;
75655;SDS011;64252;51.094;13.714;2023-02-03T11:36:53;4.53;;;1.85;;
75655;SDS011;64252;51.094;13.714;2023-02-03T11:39:26;4.85;;;1.83;;
75655;SDS011;64252;51.094;13.714;2023-02-03T11:41:54;3.85;;;1.90;;
75655;SDS011;64252;51.094;13.714;2023-02-03T11:46:48;4.30;;;1.70;;
75655;SDS011;64252;51.094;13.714;2023-02-03T11:54:46;4.75;;;1.58;;
75655;SDS011;64252;51.094;13.714;2023-02-03T11:57:32;3.70;;;1.55;;
75655;SDS011;64252;51.094;13.714;2023-02-03T12:03:16;3.33;;;1.63;;
75655;SDS011;64252;51.094;13.714;2023-02-03T12:14:14;3.22;;;1.27;;
75655;SDS011;64252;51.094;13.714;2023-02-03T12:17:34;2.95;;;1.10;;
75655;SDS011;64252;51.094;13.714;2023-02-03T12:23:01;2.92;;;1.10;;
75655;SDS011;64252;51.094;13.714;2023-02-03T12:31:14;2.67;;;1.23;;
75655;SDS011;64252;51.094;13.714;2023-02-03T12:37:07;2.40;;;1.05;;
75655;SDS011;64252;51.094;13.714;2023-02-03T12:39:40;3.17;;;1.08;;
75655;SDS011;64252;51.094;13.714;2023-02-03T12:45:27;2.20;;;0.82;;
75655;SDS011;64252;51.094;13.714;2023-02-03T12:48:11;3.38;;;0.88;;
75655;SDS011;64252;51.094;13.714;2023-02-03T12:50:43;2.72;;;0.80;;
75655;SDS011;64252;51.094;13.714;2023-02-03T12:53:17;2.25;;;0.82;;
75655;SDS011;64252;51.094;13.714;2023-02-03T12:55:55;4.00;;;0.80;;
75655;SDS011;64252;51.094;13.714;2023-02-03T13:01:41;3.22;;;1.10;;
75655;SDS011;64252;51.094;13.714;2023-02-03T13:04:31;4.95;;;1.17;;
75655;SDS011;64252;51.094;13.714;2023-02-03T13:07:05;2.33;;;1.10;;
75655;SDS011;64252;51.094;13.714;2023-02-03T13:09:39;3.88;;;1.30;;
75655;SDS011;64252;51.094;13.714;2023-02-03T13:12:13;3.30;;;1.08;;
75655;SDS011;64252;51.094;13.714;2023-02-03T13:14:45;6.05;;;2.08;;
75655;SDS011;64252;51.094;13.714;2023-02-03T13:17:25;3.67;;;0.98;;
75655;SDS011;64252;51.094;13.714;2023-02-03T13:19:55;3.42;;;0.63;;
75655;SDS011;64252;51.094;13.714;2023-02-03T13:22:24;6.25;;;0.90;;
75655;SDS011;64252;51.094;13.714;2023-02-03T13:37:03;9.90;;;1.65;;
75655;SDS011;64252;51.094;13.714;2023-02-03T13:39:51;7.32;;;1.55;;
75655;SDS011;64252;51.094;13.714;2023-02-03T13:42:25;5.07;;;1.10;;
75655;SDS011;64252;51.094;13.714;2023-02-03T13:44:55;7.28;;;1.35;;
75655;SDS011;64252;51.094;13.714;2023-02-03T13:47:28;6.50;;;1.30;;
75655;SDS011;64252;51.094;13.714;2023-02-03T13:50:02;7.22;;;1.20;;
75655;SDS011;64252;51.094;13.714;2023-02-03T13:52:33;7.40;;;1.30;;
75655;SDS011;64252;51.094;13.714;2023-02-03T13:55:02;8.35;;;1.35;;
75655;SDS011;64252;51.094;13.714;2023-02-03T13:57:33;9.20;;;1.60;;
75655;SDS011;64252;51.094;13.714;2023-02-03T14:00:03;10.55;;;1.75;;
75655;SDS011;64252;51.094;13.714;2023-02-03T14:02:42;9.43;;;2.33;;
75655;SDS011;64252;51.094;13.714;2023-02-03T14:16:28;6.63;;;1.92;;
75655;SDS011;64252;51.094;13.714;2023-02-03T14:19:09;6.28;;;1.52;;
75655;SDS011;64252;51.094;13.714;2023-02-03T14:21:49;11.63;;;1.50;;
75655;SDS011;64252;51.094;13.714;2023-02-03T14:26:48;10.90;;;1.90;;
75655;SDS011;64252;51.094;13.714;2023-02-03T14:29:27;9.43;;;1.50;;
75655;SDS011;64252;51.094;13.714;2023-02-03T14:32:14;11.07;;;1.50;;
75655;SDS011;64252;51.094;13.714;2023-02-03T14:34:40;9.15;;;1.70;;
75655;SDS011;64252;51.094;13.714;2023-02-03T14:40:45;8.38;;;1.23;;
75655;SDS011;64252;51.094;13.714;2023-02-03T14:59:49;11.65;;;2.03;;
75655;SDS011;64252;51.094;13.714;2023-02-03T15:02:25;11.75;;;1.45;;
75655;SDS011;64252;51.094;13.714;2023-02-03T15:07:40;15.95;;;4.25;;
75655;SDS011;64252;51.094;13.714;2023-02-03T15:12:49;16.38;;;3.80;;
75655;SDS011;64252;51.094;13.714;2023-02-03T15:15:29;15.95;;;2.22;;
75655;SDS011;64252;51.094;13.714;2023-02-03T15:18:38;10.02;;;1.60;;
75655;SDS011;64252;51.094;13.714;2023-02-03T15:21:04;9.05;;;1.67;;
75655;SDS011;64252;51.094;13.714;2023-02-03T15:23:38;15.82;;;4.05;;
75655;SDS011;64252;51.094;13.714;2023-02-03T15:26:17;15.35;;;1.92;;
75655;SDS011;64252;51.094;13.714;2023-02-03T15:29:01;11.07;;;2.05;;
75655;SDS011;64252;51.094;13.714;2023-02-03T15:31:38;14.60;;;1.88;;
75655;SDS011;64252;51.094;13.714;2023-02-03T15:37:01;9.75;;;3.45;;
75655;SDS011;64252;51.094;13.714;2023-02-03T15:42:03;8.27;;;1.35;;
75655;SDS011;64252;51.094;13.714;2023-02-03T15:47:03;10.32;;;2.33;;
75655;SDS011;64252;51.094;13.714;2023-02-03T15:49:40;12.75;;;2.35;;
75655;SDS011;64252;51.094;13.714;2023-02-03T15:52:17;16.02;;;2.22;;
75655;SDS011;64252;51.094;13.714;2023-02-03T15:54:48;12.65;;;2.45;;
75655;SDS011;64252;51.094;13.714;2023-02-03T15:59:54;13.52;;;2.33;;
75655;SDS011;64252;51.094;13.714;2023-02-03T16:02:33;14.43;;;2.45;;
75655;SDS011;64252;51.094;13.714;2023-02-03T16:05:04;12.52;;;2.25;;
75655;SDS011;64252;51.094;13.714;2023-02-03T16:07:41;17.42;;;3.33;;
75655;SDS011;64252;51.094;13.714;2023-02-03T16:10:21;16.67;;;3.03;;
75655;SDS011;64252;51.094;13.714;2023-02-03T16:12:53;15.05;;;2.83;;
75655;SDS011;64252;51.094;13.714;2023-02-03T16:15:34;10.38;;;2.47;;
75655;SDS011;64252;51.094;13.714;2023-02-03T16:18:02;20.05;;;5.57;;
75655;SDS011;64252;51.094;13.714;2023-02-03T16:20:31;16.30;;;2.97;;
75655;SDS011;64252;51.094;13.714;2023-02-03T16:23:02;9.20;;;2.03;;
75655;SDS011;64252;51.094;13.714;2023-02-03T16:25:42;16.10;;;2.47;;
75655;SDS011;64252;51.094;13.714;2023-02-03T16:31:00;12.05;;;1.98;;
75655;SDS011;64252;51.094;13.714;2023-02-03T16:33:53;12.63;;;2.42;;
75655;SDS011;64252;51.094;13.714;2023-02-03T16:36:43;7.95;;;2.65;;
75655;SDS011;64252;51.094;13.714;2023-02-03T16:39:27;12.05;;;1.83;;
75655;SDS011;64252;51.094;13.714;2023-02-03T16:42:12;14.90;;;2.72;;
75655;SDS011;64252;51.094;13.714;2023-02-03T16:44:59;15.05;;;1.88;;
75655;SDS011;64252;51.094;13.714;2023-02-03T16:47:44;14.23;;;2.20;;
75655;SDS011;64252;51.094;13.714;2023-02-03T16:50:29;12.85;;;1.70;;
75655;SDS011;64252;51.094;13.714;2023-02-03T16:53:15;9.73;;;2.25;;
75655;SDS011;64252;51.094;13.714;2023-02-03T16:55:47;14.40;;;2.50;;
75655;SDS011;64252;51.094;13.714;2023-02-03T16:58:13;11.25;;;2.47;;
75655;SDS011;64252;51.094;13.714;2023-02-03T17:00:39;13.43;;;1.85;;
75655;SDS011;64252;51.094;13.714;2023-02-03T17:03:06;11.20;;;1.58;;
75655;SDS011;64252;51.094;13.714;2023-02-03T17:05:37;10.40;;;1.73;;
75655;SDS011;64252;51.094;13.714;2023-02-03T17:08:05;13.48;;;2.42;;
75655;SDS011;64252;51.094;13.714;2023-02-03T17:10:34;8.95;;;1.90;;
75655;SDS011;64252;51.094;13.714;2023-02-03T17:13:00;10.40;;;1.70;;
75655;SDS011;64252;51.094;13.714;2023-02-03T17:15:26;10.85;;;2.03;;
75655;SDS011;64252;51.094;13.714;2023-02-03T17:17:52;15.93;;;2.67;;
75655;SDS011;64252;51.094;13.714;2023-02-03T17:20:17;10.55;;;1.85;;
75655;SDS011;64252;51.094;13.714;2023-02-03T17:22:43;14.95;;;2.20;;
75655;SDS011;64252;51.094;13.714;2023-02-03T17:25:09;10.00;;;2.10;;
75655;SDS011;64252;51.094;13.714;2023-02-03T17:27:34;10.70;;;2.97;;
75655;SDS011;64252;51.094;13.714;2023-02-03T17:30:00;14.32;;;2.25;;
75655;SDS011;64252;51.094;13.714;2023-02-03T17:32:25;14.82;;;2.22;;